sensor_id;sensor_type;location;lat;lon;timestamp;P1;durP1;ratioP1;P2;durP2;ratioP2
18340;SDS011;9296;48.084;16.352;2023-12-20T00:00:26;36.50;;;20.90;;
18340;SDS011;9296;48.084;16.352;2023-12-20T00:03:02;38.73;;;21.63;;
18340;SDS011;9296;48.084;16.352;2023-12-20T00:05:30;37.23;;;20.63;;
18340;SDS011;9296;48.084;16.352;2023-12-20T00:08:00;39.13;;;21.87;;
18340;SDS011;9296;48.084;16.352;2023-12-20T00:10:30;35.53;;;20.57;;
18340;SDS011;9296;48.084;16.352;2023-12-20T00:12:58;39.33;;;21.20;;
18340;SDS011;9296;48.084;16.352;2023-12-20T00:15:26;38.57;;;21.30;;
18340;SDS011;9296;48.084;16.352;2023-12-20T00:17:56;38.17;;;21.93;;
18340;SDS011;9296;48.084;16.352;2023-12-20T00:20:23;38.37;;;22.23;;
18340;SDS011;9296;48.084;16.352;2023-12-20T00:22:51;43.73;;;22.47;;
18340;SDS011;9296;48.084;16.352;2023-12-20T00:25:21;42.83;;;22.13;;
18340;SDS011;9296;48.084;16.352;2023-12-20T00:27:48;44.23;;;22.60;;
18340;SDS011;9296;48.084;16.352;2023-12-20T00:30:16;39.47;;;21.87;;
18340;SDS011;9296;48.084;16.352;2023-12-20T00:32:44;40.87;;;22.03;;
18340;SDS011;9296;48.084;16.352;2023-12-20T00:35:15;41.20;;;21.63;;
18340;SDS011;9296;48.084;16.352;2023-12-20T00:37:45;38.97;;;21.03;;
18340;SDS011;9296;48.084;16.352;2023-12-20T00:40:12;41.93;;;21.90;;
18340;SDS011;9296;48.084;16.352;2023-12-20T00:42:52;38.30;;;21.13;;
18340;SDS011;9296;48.084;16.352;2023-12-20T00:45:20;43.23;;;22.90;;
18340;SDS011;9296;48.084;16.352;2023-12-20T00:47:47;38.73;;;21.93;;
18340;SDS011;9296;48.084;16.352;2023-12-20T00:50:15;42.67;;;23.37;;
18340;SDS011;9296;48.084;16.352;2023-12-20T00:52:43;42.27;;;23.53;;
18340;SDS011;9296;48.084;16.352;2023-12-20T00:55:10;41.50;;;23.30;;
18340;SDS011;9296;48.084;16.352;2023-12-20T00:57:38;43.10;;;23.67;;
18340;SDS011;9296;48.084;16.352;2023-12-20T01:00:18;39.77;;;21.87;;
18340;SDS011;9296;48.084;16.352;2023-12-20T01:02:49;39.67;;;21.33;;
18340;SDS011;9296;48.084;16.352;2023-12-20T01:05:18;38.87;;;20.73;;
18340;SDS011;9296;48.084;16.352;2023-12-20T01:07:51;36.27;;;20.67;;
18340;SDS011;9296;48.084;16.352;2023-12-20T01:10:32;34.13;;;19.47;;
18340;SDS011;9296;48.084;16.352;2023-12-20T01:13:00;36.90;;;19.33;;
18340;SDS011;9296;48.084;16.352;2023-12-20T01:15:31;33.30;;;20.07;;
18340;SDS011;9296;48.084;16.352;2023-12-20T01:17:59;36.63;;;19.33;;
18340;SDS011;9296;48.084;16.352;2023-12-20T01:20:26;37.53;;;18.73;;
18340;SDS011;9296;48.084;16.352;2023-12-20T01:22:54;33.53;;;18.80;;
18340;SDS011;9296;48.084;16.352;2023-12-20T01:25:24;37.97;;;19.73;;
18340;SDS011;9296;48.084;16.352;2023-12-20T01:34:02;38.90;;;19.43;;
18340;SDS011;9296;48.084;16.352;2023-12-20T01:36:42;31.67;;;18.97;;
18340;SDS011;9296;48.084;16.352;2023-12-20T01:39:11;31.90;;;18.73;;
18340;SDS011;9296;48.084;16.352;2023-12-20T01:41:40;36.70;;;19.93;;
18340;SDS011;9296;48.084;16.352;2023-12-20T01:46:55;32.43;;;18.40;;
18340;SDS011;9296;48.084;16.352;2023-12-20T01:49:39;35.63;;;19.20;;
18340;SDS011;9296;48.084;16.352;2023-12-20T01:52:07;34.20;;;19.00;;
18340;SDS011;9296;48.084;16.352;2023-12-20T01:54:35;36.20;;;19.17;;
18340;SDS011;9296;48.084;16.352;2023-12-20T01:57:23;36.73;;;19.03;;
18340;SDS011;9296;48.084;16.352;2023-12-20T01:59:53;34.20;;;19.53;;
18340;SDS011;9296;48.084;16.352;2023-12-20T02:02:22;37.70;;;19.37;;
18340;SDS011;9296;48.084;16.352;2023-12-20T02:04:58;55.67;;;21.93;;
18340;SDS011;9296;48.084;16.352;2023-12-20T02:07:29;59.13;;;20.93;;
18340;SDS011;9296;48.084;16.352;2023-12-20T02:09:59;66.70;;;21.57;;
18340;SDS011;9296;48.084;16.352;2023-12-20T02:12:44;52.60;;;20.77;;
18340;SDS011;9296;48.084;16.352;2023-12-20T02:15:21;74.57;;;20.93;;
18340;SDS011;9296;48.084;16.352;2023-12-20T02:17:49;90.23;;;23.00;;
18340;SDS011;9296;48.084;16.352;2023-12-20T02:20:23;65.10;;;21.03;;
18340;SDS011;9296;48.084;16.352;2023-12-20T02:23:00;106.33;;;23.07;;
18340;SDS011;9296;48.084;16.352;2023-12-20T02:25:30;67.17;;;22.00;;
18340;SDS011;9296;48.084;16.352;2023-12-20T02:28:00;96.20;;;23.53;;
18340;SDS011;9296;48.084;16.352;2023-12-20T02:30:28;72.27;;;21.93;;
18340;SDS011;9296;48.084;16.352;2023-12-20T02:32:57;93.10;;;24.50;;
18340;SDS011;9296;48.084;16.352;2023-12-20T02:35:28;115.43;;;23.33;;
18340;SDS011;9296;48.084;16.352;2023-12-20T02:37:58;89.40;;;23.47;;
18340;SDS011;9296;48.084;16.352;2023-12-20T02:40:39;70.93;;;23.03;;
18340;SDS011;9296;48.084;16.352;2023-12-20T02:43:09;81.20;;;23.67;;
18340;SDS011;9296;48.084;16.352;2023-12-20T02:45:37;78.83;;;23.23;;
18340;SDS011;9296;48.084;16.352;2023-12-20T02:48:08;63.07;;;21.07;;
18340;SDS011;9296;48.084;16.352;2023-12-20T02:50:36;111.87;;;23.83;;
18340;SDS011;9296;48.084;16.352;2023-12-20T02:53:06;81.63;;;23.93;;
18340;SDS011;9296;48.084;16.352;2023-12-20T02:55:34;110.83;;;27.40;;
18340;SDS011;9296;48.084;16.352;2023-12-20T02:58:01;63.13;;;22.93;;
18340;SDS011;9296;48.084;16.352;2023-12-20T03:00:29;104.03;;;24.17;;
18340;SDS011;9296;48.084;16.352;2023-12-20T03:02:58;62.63;;;22.23;;
18340;SDS011;9296;48.084;16.352;2023-12-20T03:05:26;92.23;;;23.33;;
18340;SDS011;9296;48.084;16.352;2023-12-20T03:07:54;91.33;;;22.30;;
18340;SDS011;9296;48.084;16.352;2023-12-20T03:10:30;72.13;;;22.57;;
18340;SDS011;9296;48.084;16.352;2023-12-20T03:12:58;85.10;;;23.20;;
18340;SDS011;9296;48.084;16.352;2023-12-20T03:15:26;101.77;;;23.43;;
18340;SDS011;9296;48.084;16.352;2023-12-20T03:18:02;107.90;;;22.27;;
18340;SDS011;9296;48.084;16.352;2023-12-20T03:20:32;56.33;;;21.90;;
18340;SDS011;9296;48.084;16.352;2023-12-20T03:23:02;49.20;;;20.80;;
18340;SDS011;9296;48.084;16.352;2023-12-20T03:25:38;49.33;;;20.80;;
18340;SDS011;9296;48.084;16.352;2023-12-20T03:28:07;44.03;;;21.37;;
18340;SDS011;9296;48.084;16.352;2023-12-20T03:30:34;43.90;;;21.30;;
18340;SDS011;9296;48.084;16.352;2023-12-20T03:33:03;41.37;;;20.57;;
18340;SDS011;9296;48.084;16.352;2023-12-20T03:35:32;44.60;;;22.23;;
18340;SDS011;9296;48.084;16.352;2023-12-20T03:38:01;45.37;;;22.10;;
18340;SDS011;9296;48.084;16.352;2023-12-20T03:40:37;49.07;;;22.67;;
18340;SDS011;9296;48.084;16.352;2023-12-20T03:43:07;51.63;;;22.47;;
18340;SDS011;9296;48.084;16.352;2023-12-20T03:45:35;47.60;;;22.53;;
18340;SDS011;9296;48.084;16.352;2023-12-20T03:48:05;46.33;;;22.20;;
18340;SDS011;9296;48.084;16.352;2023-12-20T03:50:36;41.87;;;20.67;;
18340;SDS011;9296;48.084;16.352;2023-12-20T03:53:06;46.80;;;20.80;;
18340;SDS011;9296;48.084;16.352;2023-12-20T03:55:42;45.00;;;21.33;;
18340;SDS011;9296;48.084;16.352;2023-12-20T03:58:14;40.90;;;20.90;;
18340;SDS011;9296;48.084;16.352;2023-12-20T04:00:42;45.13;;;20.70;;
18340;SDS011;9296;48.084;16.352;2023-12-20T04:03:25;42.70;;;20.63;;
18340;SDS011;9296;48.084;16.352;2023-12-20T04:05:52;38.63;;;19.90;;
18340;SDS011;9296;48.084;16.352;2023-12-20T04:08:21;35.53;;;18.77;;
18340;SDS011;9296;48.084;16.352;2023-12-20T04:10:53;34.37;;;18.53;;
18340;SDS011;9296;48.084;16.352;2023-12-20T04:13:24;33.07;;;17.03;;
18340;SDS011;9296;48.084;16.352;2023-12-20T04:15:52;34.90;;;18.03;;
18340;SDS011;9296;48.084;16.352;2023-12-20T04:18:21;32.97;;;17.13;;
18340;SDS011;9296;48.084;16.352;2023-12-20T04:20:49;32.03;;;17.10;;
18340;SDS011;9296;48.084;16.352;2023-12-20T04:23:17;35.50;;;17.67;;
18340;SDS011;9296;48.084;16.352;2023-12-20T04:25:45;30.10;;;16.73;;
18340;SDS011;9296;48.084;16.352;2023-12-20T04:28:20;31.53;;;16.47;;
18340;SDS011;9296;48.084;16.352;2023-12-20T04:30:47;32.93;;;17.40;;
18340;SDS011;9296;48.084;16.352;2023-12-20T04:33:17;33.70;;;16.90;;
18340;SDS011;9296;48.084;16.352;2023-12-20T04:35:45;30.10;;;16.40;;
18340;SDS011;9296;48.084;16.352;2023-12-20T04:38:13;30.93;;;17.07;;
18340;SDS011;9296;48.084;16.352;2023-12-20T04:40:44;34.10;;;16.70;;
18340;SDS011;9296;48.084;16.352;2023-12-20T04:43:15;30.47;;;16.27;;
18340;SDS011;9296;48.084;16.352;2023-12-20T04:45:55;30.73;;;16.50;;
18340;SDS011;9296;48.084;16.352;2023-12-20T04:48:37;30.73;;;16.13;;
18340;SDS011;9296;48.084;16.352;2023-12-20T04:51:06;30.40;;;16.30;;
18340;SDS011;9296;48.084;16.352;2023-12-20T04:53:34;30.73;;;16.30;;
18340;SDS011;9296;48.084;16.352;2023-12-20T04:56:10;29.47;;;16.17;;
18340;SDS011;9296;48.084;16.352;2023-12-20T04:58:40;28.50;;;16.07;;
18340;SDS011;9296;48.084;16.352;2023-12-20T05:01:14;30.40;;;16.27;;
18340;SDS011;9296;48.084;16.352;2023-12-20T05:03:48;30.10;;;16.57;;
18340;SDS011;9296;48.084;16.352;2023-12-20T05:06:45;29.73;;;15.40;;
18340;SDS011;9296;48.084;16.352;2023-12-20T05:09:15;31.70;;;17.67;;
18340;SDS011;9296;48.084;16.352;2023-12-20T05:11:46;31.17;;;16.60;;
18340;SDS011;9296;48.084;16.352;2023-12-20T05:14:16;27.70;;;15.20;;
18340;SDS011;9296;48.084;16.352;2023-12-20T05:16:53;30.83;;;16.30;;
18340;SDS011;9296;48.084;16.352;2023-12-20T05:19:22;28.40;;;14.93;;
18340;SDS011;9296;48.084;16.352;2023-12-20T05:21:52;27.27;;;15.47;;
18340;SDS011;9296;48.084;16.352;2023-12-20T05:24:20;27.90;;;15.77;;
18340;SDS011;9296;48.084;16.352;2023-12-20T05:26:49;28.47;;;15.53;;
18340;SDS011;9296;48.084;16.352;2023-12-20T05:29:19;28.90;;;14.83;;
18340;SDS011;9296;48.084;16.352;2023-12-20T05:31:48;28.27;;;15.37;;
18340;SDS011;9296;48.084;16.352;2023-12-20T05:34:24;26.37;;;15.70;;
18340;SDS011;9296;48.084;16.352;2023-12-20T05:37:05;27.97;;;15.03;;
18340;SDS011;9296;48.084;16.352;2023-12-20T05:39:38;28.67;;;15.60;;
18340;SDS011;9296;48.084;16.352;2023-12-20T05:42:06;26.03;;;15.53;;
18340;SDS011;9296;48.084;16.352;2023-12-20T05:44:34;24.57;;;14.40;;
18340;SDS011;9296;48.084;16.352;2023-12-20T05:47:07;27.97;;;15.23;;
18340;SDS011;9296;48.084;16.352;2023-12-20T05:49:40;27.47;;;14.67;;
18340;SDS011;9296;48.084;16.352;2023-12-20T05:52:15;28.47;;;16.07;;
18340;SDS011;9296;48.084;16.352;2023-12-20T05:54:49;26.43;;;14.97;;
18340;SDS011;9296;48.084;16.352;2023-12-20T05:57:24;26.07;;;14.90;;
18340;SDS011;9296;48.084;16.352;2023-12-20T06:02:59;21.70;;;12.20;;
18340;SDS011;9296;48.084;16.352;2023-12-20T06:05:36;21.07;;;12.40;;
18340;SDS011;9296;48.084;16.352;2023-12-20T06:08:04;19.83;;;11.43;;
18340;SDS011;9296;48.084;16.352;2023-12-20T06:10:32;21.37;;;12.07;;
18340;SDS011;9296;48.084;16.352;2023-12-20T06:13:02;19.77;;;11.10;;
18340;SDS011;9296;48.084;16.352;2023-12-20T06:15:31;16.60;;;9.83;;
18340;SDS011;9296;48.084;16.352;2023-12-20T06:18:01;17.33;;;10.43;;
18340;SDS011;9296;48.084;16.352;2023-12-20T06:20:29;15.20;;;8.80;;
18340;SDS011;9296;48.084;16.352;2023-12-20T06:23:05;12.93;;;8.33;;
18340;SDS011;9296;48.084;16.352;2023-12-20T06:25:35;12.23;;;8.10;;
18340;SDS011;9296;48.084;16.352;2023-12-20T06:30:56;14.53;;;8.60;;
18340;SDS011;9296;48.084;16.352;2023-12-20T06:33:26;14.03;;;9.37;;
18340;SDS011;9296;48.084;16.352;2023-12-20T06:36:15;17.73;;;9.10;;
18340;SDS011;9296;48.084;16.352;2023-12-20T06:38:49;14.83;;;8.47;;
18340;SDS011;9296;48.084;16.352;2023-12-20T06:41:31;13.40;;;8.87;;
18340;SDS011;9296;48.084;16.352;2023-12-20T06:44:17;16.63;;;9.03;;
18340;SDS011;9296;48.084;16.352;2023-12-20T06:46:46;12.17;;;8.20;;
18340;SDS011;9296;48.084;16.352;2023-12-20T06:51:49;5.43;;;3.17;;
18340;SDS011;9296;48.084;16.352;2023-12-20T06:54:18;4.10;;;2.70;;
18340;SDS011;9296;48.084;16.352;2023-12-20T06:56:46;5.63;;;3.17;;
18340;SDS011;9296;48.084;16.352;2023-12-20T07:02:17;4.67;;;2.50;;
18340;SDS011;9296;48.084;16.352;2023-12-20T07:04:47;4.77;;;2.40;;
18340;SDS011;9296;48.084;16.352;2023-12-20T07:07:14;5.20;;;2.53;;
18340;SDS011;9296;48.084;16.352;2023-12-20T07:09:43;4.97;;;2.40;;
18340;SDS011;9296;48.084;16.352;2023-12-20T07:12:11;2.97;;;2.43;;
18340;SDS011;9296;48.084;16.352;2023-12-20T07:17:42;3.80;;;2.60;;
18340;SDS011;9296;48.084;16.352;2023-12-20T07:20:09;3.03;;;2.50;;
18340;SDS011;9296;48.084;16.352;2023-12-20T07:22:37;5.95;;;2.70;;
18340;SDS011;9296;48.084;16.352;2023-12-20T07:25:07;5.53;;;2.78;;
18340;SDS011;9296;48.084;16.352;2023-12-20T07:27:34;7.65;;;2.80;;
18340;SDS011;9296;48.084;16.352;2023-12-20T07:30:02;4.07;;;2.72;;
18340;SDS011;9296;48.084;16.352;2023-12-20T07:32:30;4.38;;;3.20;;
18340;SDS011;9296;48.084;16.352;2023-12-20T07:35:00;6.70;;;2.80;;
18340;SDS011;9296;48.084;16.352;2023-12-20T07:37:31;5.88;;;2.90;;
18340;SDS011;9296;48.084;16.352;2023-12-20T07:40:04;4.88;;;2.83;;
18340;SDS011;9296;48.084;16.352;2023-12-20T07:42:34;4.05;;;2.38;;
18340;SDS011;9296;48.084;16.352;2023-12-20T07:45:07;4.57;;;2.67;;
18340;SDS011;9296;48.084;16.352;2023-12-20T07:47:40;4.78;;;2.50;;
18340;SDS011;9296;48.084;16.352;2023-12-20T07:50:20;3.90;;;2.30;;
18340;SDS011;9296;48.084;16.352;2023-12-20T07:53:08;3.03;;;2.13;;
18340;SDS011;9296;48.084;16.352;2023-12-20T07:55:53;3.90;;;2.40;;
18340;SDS011;9296;48.084;16.352;2023-12-20T07:59:04;3.42;;;2.10;;
18340;SDS011;9296;48.084;16.352;2023-12-20T08:01:56;3.92;;;2.50;;
18340;SDS011;9296;48.084;16.352;2023-12-20T08:04:41;3.00;;;2.20;;
18340;SDS011;9296;48.084;16.352;2023-12-20T08:07:23;3.63;;;2.42;;
18340;SDS011;9296;48.084;16.352;2023-12-20T08:09:50;6.40;;;2.67;;
18340;SDS011;9296;48.084;16.352;2023-12-20T08:12:19;4.15;;;2.67;;
18340;SDS011;9296;48.084;16.352;2023-12-20T08:14:49;3.40;;;2.53;;
18340;SDS011;9296;48.084;16.352;2023-12-20T08:17:16;4.82;;;2.70;;
18340;SDS011;9296;48.084;16.352;2023-12-20T08:19:44;4.40;;;2.67;;
18340;SDS011;9296;48.084;16.352;2023-12-20T08:22:11;3.85;;;2.58;;
18340;SDS011;9296;48.084;16.352;2023-12-20T08:24:39;6.07;;;2.58;;
18340;SDS011;9296;48.084;16.352;2023-12-20T08:27:06;5.60;;;2.58;;
18340;SDS011;9296;48.084;16.352;2023-12-20T08:29:34;4.18;;;2.47;;
18340;SDS011;9296;48.084;16.352;2023-12-20T08:32:03;3.22;;;2.20;;
18340;SDS011;9296;48.084;16.352;2023-12-20T08:34:31;3.08;;;2.13;;
18340;SDS011;9296;48.084;16.352;2023-12-20T08:36:58;4.63;;;2.50;;
18340;SDS011;9296;48.084;16.352;2023-12-20T08:39:26;4.18;;;2.17;;
18340;SDS011;9296;48.084;16.352;2023-12-20T08:41:55;4.07;;;2.40;;
18340;SDS011;9296;48.084;16.352;2023-12-20T08:44:22;3.10;;;2.10;;
18340;SDS011;9296;48.084;16.352;2023-12-20T08:46:49;3.30;;;2.13;;
18340;SDS011;9296;48.084;16.352;2023-12-20T08:49:18;3.53;;;2.33;;
18340;SDS011;9296;48.084;16.352;2023-12-20T08:51:45;3.45;;;2.20;;
18340;SDS011;9296;48.084;16.352;2023-12-20T08:54:13;4.10;;;2.58;;
18340;SDS011;9296;48.084;16.352;2023-12-20T08:56:41;2.83;;;2.00;;
18340;SDS011;9296;48.084;16.352;2023-12-20T08:59:09;5.25;;;2.10;;
18340;SDS011;9296;48.084;16.352;2023-12-20T09:01:37;3.88;;;2.10;;
18340;SDS011;9296;48.084;16.352;2023-12-20T09:04:04;3.50;;;2.28;;
18340;SDS011;9296;48.084;16.352;2023-12-20T09:06:33;4.05;;;2.05;;
18340;SDS011;9296;48.084;16.352;2023-12-20T09:09:00;2.33;;;1.83;;
18340;SDS011;9296;48.084;16.352;2023-12-20T09:11:28;3.78;;;1.75;;
18340;SDS011;9296;48.084;16.352;2023-12-20T09:13:56;4.28;;;2.00;;
18340;SDS011;9296;48.084;16.352;2023-12-20T09:16:23;3.40;;;2.03;;
18340;SDS011;9296;48.084;16.352;2023-12-20T09:18:50;4.15;;;2.13;;
18340;SDS011;9296;48.084;16.352;2023-12-20T09:21:18;2.47;;;1.88;;
18340;SDS011;9296;48.084;16.352;2023-12-20T09:23:47;2.72;;;1.52;;
18340;SDS011;9296;48.084;16.352;2023-12-20T09:26:14;2.60;;;1.70;;
18340;SDS011;9296;48.084;16.352;2023-12-20T09:28:41;2.35;;;1.58;;
18340;SDS011;9296;48.084;16.352;2023-12-20T09:31:08;3.55;;;1.90;;
18340;SDS011;9296;48.084;16.352;2023-12-20T09:33:36;2.67;;;1.80;;
18340;SDS011;9296;48.084;16.352;2023-12-20T09:36:03;2.13;;;1.40;;
18340;SDS011;9296;48.084;16.352;2023-12-20T09:38:31;1.80;;;1.45;;
18340;SDS011;9296;48.084;16.352;2023-12-20T09:41:00;2.38;;;1.50;;
18340;SDS011;9296;48.084;16.352;2023-12-20T09:46:32;1.95;;;1.52;;
18340;SDS011;9296;48.084;16.352;2023-12-20T09:49:00;3.00;;;1.52;;
18340;SDS011;9296;48.084;16.352;2023-12-20T09:51:28;2.67;;;1.70;;
18340;SDS011;9296;48.084;16.352;2023-12-20T09:53:58;1.90;;;1.63;;
18340;SDS011;9296;48.084;16.352;2023-12-20T09:56:31;2.47;;;1.80;;
18340;SDS011;9296;48.084;16.352;2023-12-20T10:01:44;2.47;;;1.30;;
18340;SDS011;9296;48.084;16.352;2023-12-20T10:04:12;1.70;;;1.33;;
18340;SDS011;9296;48.084;16.352;2023-12-20T10:06:39;1.35;;;1.20;;
18340;SDS011;9296;48.084;16.352;2023-12-20T10:09:07;1.27;;;1.15;;
18340;SDS011;9296;48.084;16.352;2023-12-20T10:11:36;1.52;;;1.30;;
18340;SDS011;9296;48.084;16.352;2023-12-20T10:14:04;1.58;;;1.30;;
18340;SDS011;9296;48.084;16.352;2023-12-20T10:16:32;1.67;;;1.30;;
18340;SDS011;9296;48.084;16.352;2023-12-20T10:18:59;1.77;;;1.23;;
18340;SDS011;9296;48.084;16.352;2023-12-20T10:21:27;3.30;;;1.23;;
18340;SDS011;9296;48.084;16.352;2023-12-20T10:23:54;1.50;;;1.23;;
18340;SDS011;9296;48.084;16.352;2023-12-20T10:26:22;1.02;;;0.93;;
18340;SDS011;9296;48.084;16.352;2023-12-20T10:29:09;1.10;;;1.00;;
18340;SDS011;9296;48.084;16.352;2023-12-20T10:31:37;1.30;;;0.98;;
18340;SDS011;9296;48.084;16.352;2023-12-20T10:34:04;2.05;;;1.20;;
18340;SDS011;9296;48.084;16.352;2023-12-20T10:36:32;1.05;;;0.80;;
18340;SDS011;9296;48.084;16.352;2023-12-20T10:39:01;2.90;;;0.90;;
18340;SDS011;9296;48.084;16.352;2023-12-20T10:41:30;2.33;;;1.17;;
18340;SDS011;9296;48.084;16.352;2023-12-20T10:44:00;1.75;;;1.00;;
18340;SDS011;9296;48.084;16.352;2023-12-20T10:46:30;0.98;;;0.70;;
18340;SDS011;9296;48.084;16.352;2023-12-20T10:48:58;1.23;;;0.80;;
18340;SDS011;9296;48.084;16.352;2023-12-20T10:51:25;1.10;;;0.70;;
18340;SDS011;9296;48.084;16.352;2023-12-20T10:53:54;0.57;;;0.57;;
18340;SDS011;9296;48.084;16.352;2023-12-20T10:56:22;1.05;;;0.75;;
18340;SDS011;9296;48.084;16.352;2023-12-20T10:58:50;1.02;;;0.70;;
18340;SDS011;9296;48.084;16.352;2023-12-20T11:01:17;0.93;;;0.70;;
18340;SDS011;9296;48.084;16.352;2023-12-20T11:03:49;0.80;;;0.70;;
18340;SDS011;9296;48.084;16.352;2023-12-20T11:06:28;0.77;;;0.60;;
18340;SDS011;9296;48.084;16.352;2023-12-20T11:09:00;0.65;;;0.50;;
18340;SDS011;9296;48.084;16.352;2023-12-20T11:11:35;0.70;;;0.70;;
18340;SDS011;9296;48.084;16.352;2023-12-20T11:14:05;1.00;;;0.60;;
18340;SDS011;9296;48.084;16.352;2023-12-20T11:16:36;1.17;;;1.00;;
18340;SDS011;9296;48.084;16.352;2023-12-20T11:19:06;1.55;;;0.90;;
18340;SDS011;9296;48.084;16.352;2023-12-20T11:21:33;1.67;;;0.60;;
18340;SDS011;9296;48.084;16.352;2023-12-20T11:24:01;0.73;;;0.52;;
18340;SDS011;9296;48.084;16.352;2023-12-20T11:26:29;0.60;;;0.60;;
18340;SDS011;9296;48.084;16.352;2023-12-20T11:31:57;1.73;;;0.85;;
18340;SDS011;9296;48.084;16.352;2023-12-20T11:34:28;1.25;;;0.90;;
18340;SDS011;9296;48.084;16.352;2023-12-20T11:36:58;1.67;;;0.93;;
18340;SDS011;9296;48.084;16.352;2023-12-20T11:39:26;2.28;;;0.80;;
18340;SDS011;9296;48.084;16.352;2023-12-20T11:41:55;1.48;;;0.80;;
18340;SDS011;9296;48.084;16.352;2023-12-20T11:50:30;0.77;;;0.65;;
18340;SDS011;9296;48.084;16.352;2023-12-20T11:52:58;1.23;;;1.10;;
18340;SDS011;9296;48.084;16.352;2023-12-20T11:55:25;0.80;;;0.68;;
18340;SDS011;9296;48.084;16.352;2023-12-20T11:57:53;2.45;;;0.50;;
18340;SDS011;9296;48.084;16.352;2023-12-20T12:03:23;0.60;;;0.50;;
18340;SDS011;9296;48.084;16.352;2023-12-20T12:05:52;0.65;;;0.57;;
18340;SDS011;9296;48.084;16.352;2023-12-20T12:08:20;1.45;;;0.50;;
18340;SDS011;9296;48.084;16.352;2023-12-20T12:10:47;0.63;;;0.57;;
18340;SDS011;9296;48.084;16.352;2023-12-20T12:13:15;0.45;;;0.45;;
18340;SDS011;9296;48.084;16.352;2023-12-20T12:15:42;1.25;;;0.60;;
18340;SDS011;9296;48.084;16.352;2023-12-20T12:18:10;0.80;;;0.68;;
18340;SDS011;9296;48.084;16.352;2023-12-20T12:20:37;1.25;;;0.50;;
18340;SDS011;9296;48.084;16.352;2023-12-20T12:23:06;1.88;;;0.40;;
18340;SDS011;9296;48.084;16.352;2023-12-20T12:25:35;0.57;;;0.47;;
18340;SDS011;9296;48.084;16.352;2023-12-20T12:28:03;0.80;;;0.70;;
18340;SDS011;9296;48.084;16.352;2023-12-20T12:33:34;0.68;;;0.50;;
18340;SDS011;9296;48.084;16.352;2023-12-20T12:36:02;4.05;;;0.55;;
18340;SDS011;9296;48.084;16.352;2023-12-20T12:38:33;0.50;;;0.50;;
18340;SDS011;9296;48.084;16.352;2023-12-20T12:41:05;1.95;;;0.50;;
18340;SDS011;9296;48.084;16.352;2023-12-20T12:43:33;0.60;;;0.50;;
18340;SDS011;9296;48.084;16.352;2023-12-20T12:46:02;1.80;;;1.05;;
18340;SDS011;9296;48.084;16.352;2023-12-20T12:48:32;1.08;;;0.68;;
18340;SDS011;9296;48.084;16.352;2023-12-20T12:51:04;1.73;;;0.73;;
18340;SDS011;9296;48.084;16.352;2023-12-20T12:53:34;1.00;;;0.50;;
18340;SDS011;9296;48.084;16.352;2023-12-20T12:56:01;1.52;;;0.77;;
18340;SDS011;9296;48.084;16.352;2023-12-20T12:58:29;0.80;;;0.80;;
18340;SDS011;9296;48.084;16.352;2023-12-20T13:07:03;1.40;;;0.85;;
18340;SDS011;9296;48.084;16.352;2023-12-20T13:09:32;0.70;;;0.60;;
18340;SDS011;9296;48.084;16.352;2023-12-20T13:12:00;1.48;;;1.00;;
18340;SDS011;9296;48.084;16.352;2023-12-20T13:14:29;1.70;;;1.50;;
18340;SDS011;9296;48.084;16.352;2023-12-20T13:16:56;1.80;;;1.00;;
18340;SDS011;9296;48.084;16.352;2023-12-20T13:19:23;1.45;;;1.20;;
18340;SDS011;9296;48.084;16.352;2023-12-20T13:21:51;0.90;;;0.65;;
18340;SDS011;9296;48.084;16.352;2023-12-20T13:24:18;1.00;;;0.80;;
18340;SDS011;9296;48.084;16.352;2023-12-20T13:26:47;1.10;;;1.00;;
18340;SDS011;9296;48.084;16.352;2023-12-20T13:29:14;4.60;;;1.05;;
18340;SDS011;9296;48.084;16.352;2023-12-20T13:31:42;1.02;;;0.75;;
18340;SDS011;9296;48.084;16.352;2023-12-20T13:34:09;2.38;;;1.65;;
18340;SDS011;9296;48.084;16.352;2023-12-20T13:36:37;1.65;;;1.10;;
18340;SDS011;9296;48.084;16.352;2023-12-20T13:39:04;1.02;;;0.90;;
18340;SDS011;9296;48.084;16.352;2023-12-20T13:41:33;1.20;;;1.00;;
18340;SDS011;9296;48.084;16.352;2023-12-20T13:47:05;0.93;;;0.80;;
18340;SDS011;9296;48.084;16.352;2023-12-20T13:49:32;1.08;;;0.98;;
18340;SDS011;9296;48.084;16.352;2023-12-20T13:52:00;2.35;;;1.50;;
18340;SDS011;9296;48.084;16.352;2023-12-20T13:54:29;1.45;;;0.95;;
18340;SDS011;9296;48.084;16.352;2023-12-20T13:56:56;1.95;;;0.73;;
18340;SDS011;9296;48.084;16.352;2023-12-20T14:05:33;0.98;;;0.85;;
18340;SDS011;9296;48.084;16.352;2023-12-20T14:08:01;1.17;;;0.90;;
18340;SDS011;9296;48.084;16.352;2023-12-20T14:10:28;0.95;;;0.82;;
18340;SDS011;9296;48.084;16.352;2023-12-20T14:12:55;3.38;;;1.20;;
18340;SDS011;9296;48.084;16.352;2023-12-20T14:18:27;1.40;;;1.13;;
18340;SDS011;9296;48.084;16.352;2023-12-20T14:20:57;1.17;;;1.00;;
18340;SDS011;9296;48.084;16.352;2023-12-20T14:23:24;1.83;;;1.42;;
18340;SDS011;9296;48.084;16.352;2023-12-20T14:25:52;2.28;;;1.00;;
18340;SDS011;9296;48.084;16.352;2023-12-20T14:28:21;1.55;;;1.10;;
18340;SDS011;9296;48.084;16.352;2023-12-20T14:30:48;2.70;;;1.80;;
18340;SDS011;9296;48.084;16.352;2023-12-20T14:33:15;1.20;;;1.10;;
18340;SDS011;9296;48.084;16.352;2023-12-20T14:35:45;1.38;;;1.20;;
18340;SDS011;9296;48.084;16.352;2023-12-20T14:38:13;1.50;;;0.82;;
18340;SDS011;9296;48.084;16.352;2023-12-20T14:40:41;2.30;;;1.20;;
18340;SDS011;9296;48.084;16.352;2023-12-20T14:43:08;0.90;;;0.90;;
18340;SDS011;9296;48.084;16.352;2023-12-20T14:45:36;2.42;;;1.10;;
18340;SDS011;9296;48.084;16.352;2023-12-20T14:48:04;2.42;;;1.20;;
18340;SDS011;9296;48.084;16.352;2023-12-20T14:50:32;1.80;;;1.48;;
18340;SDS011;9296;48.084;16.352;2023-12-20T14:52:59;1.30;;;1.20;;
18340;SDS011;9296;48.084;16.352;2023-12-20T14:55:28;1.20;;;0.85;;
18340;SDS011;9296;48.084;16.352;2023-12-20T14:57:55;1.90;;;1.20;;
18340;SDS011;9296;48.084;16.352;2023-12-20T15:03:30;1.77;;;1.20;;
18340;SDS011;9296;48.084;16.352;2023-12-20T15:05:58;2.97;;;1.92;;
18340;SDS011;9296;48.084;16.352;2023-12-20T15:08:25;4.30;;;1.73;;
18340;SDS011;9296;48.084;16.352;2023-12-20T15:10:54;2.53;;;1.27;;
18340;SDS011;9296;48.084;16.352;2023-12-20T15:13:22;1.10;;;1.00;;
18340;SDS011;9296;48.084;16.352;2023-12-20T15:15:49;1.58;;;1.40;;
18340;SDS011;9296;48.084;16.352;2023-12-20T15:18:36;1.38;;;1.27;;
18340;SDS011;9296;48.084;16.352;2023-12-20T15:21:04;1.40;;;1.30;;
18340;SDS011;9296;48.084;16.352;2023-12-20T15:23:32;1.95;;;1.75;;
18340;SDS011;9296;48.084;16.352;2023-12-20T15:26:01;1.58;;;1.40;;
18340;SDS011;9296;48.084;16.352;2023-12-20T15:28:29;1.60;;;1.35;;
18340;SDS011;9296;48.084;16.352;2023-12-20T15:41:35;5.88;;;3.55;;
18340;SDS011;9296;48.084;16.352;2023-12-20T15:44:02;4.00;;;2.83;;
18340;SDS011;9296;48.084;16.352;2023-12-20T15:49:34;1.33;;;1.10;;
18340;SDS011;9296;48.084;16.352;2023-12-20T15:52:01;1.17;;;1.08;;
18340;SDS011;9296;48.084;16.352;2023-12-20T15:54:31;1.45;;;0.98;;
18340;SDS011;9296;48.084;16.352;2023-12-20T15:57:00;1.10;;;1.00;;
18340;SDS011;9296;48.084;16.352;2023-12-20T15:59:28;1.17;;;1.00;;
18340;SDS011;9296;48.084;16.352;2023-12-20T16:10:06;1.58;;;1.30;;
18340;SDS011;9296;48.084;16.352;2023-12-20T16:32:07;1.50;;;1.10;;
18340;SDS011;9296;48.084;16.352;2023-12-20T16:34:35;1.17;;;1.00;;
18340;SDS011;9296;48.084;16.352;2023-12-20T16:37:02;1.50;;;1.00;;
18340;SDS011;9296;48.084;16.352;2023-12-20T16:39:30;1.20;;;1.00;;